Norwegian Sky — C6PZ8 — position and weather

sailwx.info

Track history (hours):
 
Tides and Currents Weather Stations Pressure Air Temp Water Temp Dewpoint Dewpoint Depression Visibility Wind Speed Wind Dir Waves Ship Positions

Norwegian Sky (Norway)

Operator: Norwegian Cruise Line

Last reported at 2018-Sep-24 20:59 UTC. Time now 2018-Sep-24 21:28 UTC.
Position N 25°47' W 080°10'.

Length 258 m; draft 8 m.

Type: Ship. MMSI: 308865000.

Date/timePositionNaut miles runAvg speedWind from/ knotsBaromVisibWave heightAir tempDewpointWater temp
2018-Sep-24 20:59N 25°47' W 080°10'0 0.0
2018-Sep-24 20:29N 25°47' W 080°10'0 0.0
2018-Sep-24 19:59N 25°47' W 080°10'0 0.0
2018-Sep-24 19:29N 25°47' W 080°10'0 0.0
2018-Sep-24 19:02N 25°47' W 080°10'0 0.0
2018-Sep-24 18:59N 25°47' W 080°10'0 0.0
2018-Sep-24 18:28N 25°47' W 080°10'0 0.0
2018-Sep-24 17:55N 25°47' W 080°10'0 0.0
2018-Sep-24 17:22N 25°47' W 080°10'0 0.0
2018-Sep-24 17:01N 25°47' W 080°10'0 0.0
2018-Sep-24 16:58N 25°47' W 080°10'0 0.0
2018-Sep-24 16:31N 25°47' W 080°10'0 0.0
2018-Sep-24 15:57N 25°47' W 080°10'0 0.0
2018-Sep-24 15:24N 25°47' W 080°10'0 0.0
2018-Sep-24 15:03N 25°47' W 080°10'0 0.0
2018-Sep-24 15:00N 25°47' W 080°10'0 0.0
2018-Sep-24 14:30N 25°47' W 080°10'0 0.0
2018-Sep-24 13:59N 25°47' W 080°10'0 0.0
2018-Sep-24 13:26N 25°47' W 080°10'0 0.0
2018-Sep-24 13:01N 25°47' W 080°10'0 0.0
2018-Sep-24 12:49N 25°47' W 080°10'0 0.0
2018-Sep-24 12:28N 25°47' W 080°10'0 0.0
2018-Sep-24 12:01N 25°47' W 080°10'0 0.0
2018-Sep-24 11:58N 25°47' W 080°10'0 0.0
2018-Sep-24 11:19N 25°47' W 080°10'0 0.0
2018-Sep-24 10:55N 25°47' W 080°10'0 0.0
2018-Sep-24 10:30N 25°47' W 080°10'1 1.2
2018-Sep-24 10:03N 25°47' W 080°10'0 4.5
2018-Sep-24 10:00N 25°47' W 080°11'2 4.0
2018-Sep-24 09:30N 25°46' W 080°09'512.1
2018-Sep-24 09:03N 25°47' W 080°03'111.9
2018-Sep-24 09:00N 25°47' W 080°02'510.9
2018-Sep-24 08:30N 25°47' W 079°56'714.9
2018-Sep-24 08:02N 25°47' W 079°48'115.0
2018-Sep-24 08:00N 25°47' W 079°48'714.1
2018-Sep-24 07:30N 25°49' W 079°40'613.5
2018-Sep-24 07:03N 25°53' W 079°35'113.7
2018-Sep-24 07:00N 25°54' W 079°35'5 9.3
2018-Sep-24 06:30N 25°57' W 079°31'4 8.3
2018-Sep-24 06:03N 25°60' W 079°28'0 7.6
2018-Sep-24 06:00N 25°60' W 079°28'4 7.8
2018-Sep-24 05:30N 26°02' W 079°25'714.8
2018-Sep-24 05:03N 26°07' W 079°19'117.8
2018-Sep-24 05:00N 26°07' W 079°18'3 0.1
2018-Sep-22 02:53N 26°06' W 079°22'4 9.8
2018-Sep-22 02:30N 26°04' W 079°24'4 9.8
2018-Sep-22 02:03N 26°00' W 079°28'110.0
2018-Sep-22 02:00N 26°00' W 079°28'5 9.7
2018-Sep-22 01:30N 25°57' W 079°32'4 9.2
2018-Sep-22 01:02N 25°53' W 079°35'0 9.2
2018-Sep-22 01:00N 25°53' W 079°35'5 9.4
2018-Sep-22 00:30N 25°50' W 079°39'4 9.9
2018-Sep-22 00:03N 25°47' W 079°42'110.8
2018-Sep-22 00:00N 25°46' W 079°43'510.2
2018-Sep-21 23:29N 25°46' W 079°49'4 9.9
2018-Sep-21 23:04N 25°46' W 079°54'110.1
2018-Sep-21 23:01N 25°46' W 079°54'5 9.8
2018-Sep-21 22:30N 25°46' W 079°60'4 9.7
2018-Sep-21 22:04N 25°46' W 080°04'0 6.7
2018-Sep-21 22:01N 25°46' W 080°05'5 9.0
2018-Sep-21 21:30N 25°47' W 080°10'0 0.7
2018-Sep-21 21:03N 25°47' W 080°10'0 2.7
2018-Sep-21 20:58N 25°47' W 080°10'0 0.0
2018-Sep-21 20:22N 25°47' W 080°10'0 0.0
2018-Sep-21 20:01N 25°47' W 080°10'0 0.0
2018-Sep-21 19:58N 25°47' W 080°10'0 0.0
2018-Sep-21 19:31N 25°47' W 080°10'0 0.0
2018-Sep-21 19:00N 25°47' W 080°10'0 0.0
2018-Sep-21 18:24N 25°47' W 080°10'0 0.0
2018-Sep-21 18:03N 25°47' W 080°10'0 0.0
2018-Sep-21 18:00N 25°47' W 080°10'0 0.0
2018-Sep-21 17:28N 25°47' W 080°10'0 0.0
2018-Sep-21 17:01N 25°47' W 080°10'0 0.0
2018-Sep-21 16:58N 25°47' W 080°10'0 0.0
2018-Sep-21 16:28N 25°47' W 080°10'0 0.0
2018-Sep-21 16:00N 25°47' W 080°10'0 0.0
2018-Sep-21 15:30N 25°47' W 080°10'0 0.0
2018-Sep-21 15:03N 25°47' W 080°10'0 0.0
2018-Sep-21 15:00N 25°47' W 080°10'0 0.0
2018-Sep-21 14:30N 25°47' W 080°10'0 0.0
2018-Sep-21 13:29N 25°47' W 080°10'0 0.0
2018-Sep-21 13:02N 25°47' W 080°10'0 0.0
2018-Sep-21 12:56N 25°47' W 080°10'0 0.0
2018-Sep-21 12:29N 25°47' W 080°10'0 0.0
2018-Sep-21 12:02N 25°47' W 080°10'0 0.0
2018-Sep-21 11:59N 25°47' W 080°10'0 0.0
2018-Sep-21 11:29N 25°47' W 080°10'0 0.0
2018-Sep-21 11:03N 25°47' W 080°10'0 0.0
2018-Sep-21 10:52N 25°47' W 080°10'0 0.0
2018-Sep-21 10:25N 25°47' W 080°10'0 0.0
2018-Sep-21 10:01N 25°47' W 080°10'0 0.0
2018-Sep-21 09:59N 25°47' W 080°10'1 2.3
2018-Sep-21 09:30N 25°46' W 080°09'511.1
2018-Sep-21 09:03N 25°46' W 080°03'011.5
2018-Sep-21 09:00N 25°46' W 080°03'4 7.8
2018-Sep-21 08:30N 25°47' W 079°58'5 9.6
2018-Sep-21 08:02N 25°47' W 079°53'0 9.3
2018-Sep-21 08:00N 25°47' W 079°53'5 9.2
2018-Sep-21 07:30N 25°47' W 079°48'4 9.2
2018-Sep-21 07:03N 25°47' W 079°43'0 8.9
2018-Sep-21 07:00N 25°47' W 079°43'4 8.3
2018-Sep-21 06:30N 25°43' W 079°41'4 9.1
2018-Sep-21 06:03N 25°39' W 079°40'0 9.1
2018-Sep-21 06:01N 25°39' W 079°40'5 9.1
2018-Sep-21 05:30N 25°34' W 079°40'4 9.9
2018-Sep-21 05:03N 25°30' W 079°40'111.0
2018-Sep-21 05:00N 25°29' W 079°40'611.7
2018-Sep-21 04:30N 25°23' W 079°40'5 0.1
2018-Sep-19 00:51N 25°25' W 079°35'618.2
2018-Sep-19 00:30N 25°31' W 079°34'818.0
2018-Sep-19 00:03N 25°39' W 079°33'117.9
2018-Sep-19 00:00N 25°40' W 079°33'918.3
2018-Sep-18 23:30N 25°48' W 079°28'818.5
2018-Sep-18 23:03N 25°55' W 079°23'118.8
2018-Sep-18 23:00N 25°56' W 079°22'11 0.5
2018-Sep-18 02:18N 26°07' W 079°21'3 9.9
2018-Sep-18 01:58N 26°04' W 079°24'510.0
2018-Sep-18 01:30N 26°01' W 079°27'4 9.9
2018-Sep-18 01:03N 25°57' W 079°31'0 9.8
2018-Sep-18 01:00N 25°57' W 079°31'510.0
2018-Sep-18 00:30N 25°54' W 079°35'510.2
2018-Sep-18 00:03N 25°50' W 079°39'110.5
2018-Sep-18 00:00N 25°50' W 079°39'510.2
2018-Sep-17 23:30N 25°46' W 079°43'510.2
2018-Sep-17 23:03N 25°46' W 079°48'110.2
2018-Sep-17 23:00N 25°46' W 079°49'510.3
2018-Sep-17 22:30N 25°46' W 079°55'510.3
2018-Sep-17 22:03N 25°46' W 079°60'010.4
2018-Sep-17 22:00N 25°46' W 080°00'5 9.1
2018-Sep-17 21:30N 25°46' W 080°05'4 8.8
2018-Sep-17 21:03N 25°46' W 080°10'0 0.4
2018-Sep-17 20:59N 25°46' W 080°10'0 0.0
2018-Sep-17 20:29N 25°46' W 080°10'0 0.0
2018-Sep-17 20:01N 25°46' W 080°10'0 0.0
2018-Sep-17 19:58N 25°46' W 080°10'0 0.0
2018-Sep-17 19:28N 25°46' W 080°10'0 0.0
2018-Sep-17 19:01N 25°46' W 080°10'0 0.0
2018-Sep-17 18:58N 25°46' W 080°10'0 0.0
2018-Sep-17 18:28N 25°46' W 080°10'0 0.0
2018-Sep-17 18:01N 25°46' W 080°10'0 0.0
2018-Sep-17 17:58N 25°46' W 080°10'0 0.0
2018-Sep-17 17:24N 25°46' W 080°10'0 0.0
2018-Sep-17 16:59N 25°46' W 080°10'0 0.0
2018-Sep-17 16:25N 25°46' W 080°10'0 0.0
2018-Sep-17 15:58N 25°46' W 080°10'0 0.0
2018-Sep-17 15:28N 25°46' W 080°10'0 0.0
2018-Sep-17 15:01N 25°46' W 080°10'0 0.0
2018-Sep-17 14:58N 25°46' W 080°10'0 0.0
2018-Sep-17 14:28N 25°46' W 080°10'0 0.0
2018-Sep-17 14:00N 25°46' W 080°10'0 0.0
2018-Sep-17 13:30N 25°46' W 080°10'0 0.0
2018-Sep-17 13:03N 25°46' W 080°10'0 0.0
2018-Sep-17 13:00N 25°46' W 080°10'0 0.0
2018-Sep-17 12:30N 25°46' W 080°10'0 0.0
2018-Sep-17 12:03N 25°46' W 080°10'0 0.0
2018-Sep-17 12:00N 25°46' W 080°10'0 0.0
2018-Sep-17 11:29N 25°46' W 080°10'0 0.0
2018-Sep-17 11:02N 25°46' W 080°10'0 0.0
2018-Sep-17 10:59N 25°46' W 080°10'0 0.0
2018-Sep-17 10:30N 25°46' W 080°10'1 2.0
2018-Sep-17 10:03N 25°47' W 080°11'0 5.3
2018-Sep-17 10:00N 25°47' W 080°11'2 4.4
2018-Sep-17 09:30N 25°46' W 080°09'510.7
2018-Sep-17 09:03N 25°47' W 080°03'0 9.2
2018-Sep-17 09:00N 25°47' W 080°03'4 7.5
2018-Sep-17 08:30N 25°47' W 079°59'4 8.7
2018-Sep-17 08:03N 25°47' W 079°54'0 8.7
2018-Sep-17 08:01N 25°47' W 079°54'4 8.9
2018-Sep-17 07:30N 25°47' W 079°49'4 8.6
2018-Sep-17 07:03N 25°48' W 079°45'0 8.5
2018-Sep-17 07:00N 25°48' W 079°44'4 8.2
2018-Sep-17 06:30N 25°50' W 079°40'4 8.3
2018-Sep-17 06:03N 25°52' W 079°37'0 8.1
2018-Sep-17 06:01N 25°52' W 079°37'4 8.1
2018-Sep-17 05:31N 25°55' W 079°34'3 7.7
2018-Sep-17 05:03N 25°58' W 079°31'0 6.4
2018-Sep-17 05:00N 25°58' W 079°31'3 6.4
2018-Sep-17 04:30N 26°00' W 079°28'3 6.5
2018-Sep-17 04:02N 26°02' W 079°26'0 6.5
2018-Sep-17 04:00N 26°02' W 079°26'3 6.2
2018-Sep-17 03:30N 26°05' W 079°23'3 6.3
2018-Sep-17 03:01N 26°07' W 079°21'0 6.1
2018-Sep-17 03:00N 26°07' W 079°21'4 7.6
2018-Sep-17 02:30N 26°09' W 079°17'4 9.4
2018-Sep-17 02:02N 26°10' W 079°13'10 0.2
2018-Sep-15 02:20N 26°06' W 079°23'2 6.2
2018-Sep-15 02:02N 26°04' W 079°24'0 7.6
2018-Sep-15 02:00N 26°04' W 079°24'4 7.1
2018-Sep-15 01:30N 26°01' W 079°26'4 9.2
2018-Sep-15 01:03N 25°58' W 079°29'110.2
2018-Sep-15 01:00N 25°58' W 079°29'510.0
2018-Sep-15 00:30N 25°54' W 079°33'510.7
2018-Sep-15 00:03N 25°51' W 079°37'112.7
2018-Sep-15 00:00N 25°51' W 079°38'612.5
2018-Sep-14 23:30N 25°47' W 079°43'510.0
2018-Sep-14 23:02N 25°46' W 079°48'010.2
2018-Sep-14 23:00N 25°46' W 079°49'713.7
2018-Sep-14 22:30N 25°46' W 079°56'714.6
2018-Sep-14 22:03N 25°46' W 080°04'114.0
2018-Sep-14 22:00N 25°46' W 080°04'5 9.9
2018-Sep-14 21:30N 25°47' W 080°10'0 0.2
2018-Sep-14 21:03N 25°47' W 080°10'  
Track history (hours):
 
Tides and Currents Weather Stations Pressure Air Temp Water Temp Dewpoint Dewpoint Depression Visibility Wind Speed Wind Dir Waves Ship Positions

Norwegian Sky (Norway)

Operator: Norwegian Cruise Line

Last reported at 2018-Sep-24 20:59 UTC. Time now 2018-Sep-24 21:28 UTC.
Position N 25°47' W 080°10'.

Length 258 m; draft 8 m.

Type: Ship. MMSI: 308865000.

Date/timePositionNaut miles runAvg speedWind from/ knotsBaromVisibWave heightAir tempDewpointWater temp
2018-Sep-24 20:59N 25°47' W 080°10'0 0.0
2018-Sep-24 20:29N 25°47' W 080°10'0 0.0
2018-Sep-24 19:59N 25°47' W 080°10'0 0.0
2018-Sep-24 19:29N 25°47' W 080°10'0 0.0
2018-Sep-24 19:02N 25°47' W 080°10'0 0.0
2018-Sep-24 18:59N 25°47' W 080°10'0 0.0
2018-Sep-24 18:28N 25°47' W 080°10'0 0.0
2018-Sep-24 17:55N 25°47' W 080°10'0 0.0
2018-Sep-24 17:22N 25°47' W 080°10'0 0.0
2018-Sep-24 17:01N 25°47' W 080°10'0 0.0
2018-Sep-24 16:58N 25°47' W 080°10'0 0.0
2018-Sep-24 16:31N 25°47' W 080°10'0 0.0
2018-Sep-24 15:57N 25°47' W 080°10'0 0.0
2018-Sep-24 15:24N 25°47' W 080°10'0 0.0
2018-Sep-24 15:03N 25°47' W 080°10'0 0.0
2018-Sep-24 15:00N 25°47' W 080°10'0 0.0
2018-Sep-24 14:30N 25°47' W 080°10'0 0.0
2018-Sep-24 13:59N 25°47' W 080°10'0 0.0
2018-Sep-24 13:26N 25°47' W 080°10'0 0.0
2018-Sep-24 13:01N 25°47' W 080°10'0 0.0
2018-Sep-24 12:49N 25°47' W 080°10'0 0.0
2018-Sep-24 12:28N 25°47' W 080°10'0 0.0
2018-Sep-24 12:01N 25°47' W 080°10'0 0.0
2018-Sep-24 11:58N 25°47' W 080°10'0 0.0
2018-Sep-24 11:19N 25°47' W 080°10'0 0.0
2018-Sep-24 10:55N 25°47' W 080°10'0 0.0
2018-Sep-24 10:30N 25°47' W 080°10'1 1.2
2018-Sep-24 10:03N 25°47' W 080°10'0 4.5
2018-Sep-24 10:00N 25°47' W 080°11'2 4.0
2018-Sep-24 09:30N 25°46' W 080°09'512.1
2018-Sep-24 09:03N 25°47' W 080°03'111.9
2018-Sep-24 09:00N 25°47' W 080°02'510.9
2018-Sep-24 08:30N 25°47' W 079°56'714.9
2018-Sep-24 08:02N 25°47' W 079°48'115.0
2018-Sep-24 08:00N 25°47' W 079°48'714.1
2018-Sep-24 07:30N 25°49' W 079°40'613.5
2018-Sep-24 07:03N 25°53' W 079°35'113.7
2018-Sep-24 07:00N 25°54' W 079°35'5 9.3
2018-Sep-24 06:30N 25°57' W 079°31'4 8.3
2018-Sep-24 06:03N 25°60' W 079°28'0 7.6
2018-Sep-24 06:00N 25°60' W 079°28'4 7.8
2018-Sep-24 05:30N 26°02' W 079°25'714.8
2018-Sep-24 05:03N 26°07' W 079°19'117.8
2018-Sep-24 05:00N 26°07' W 079°18'3 0.1
2018-Sep-22 02:53N 26°06' W 079°22'4 9.8
2018-Sep-22 02:30N 26°04' W 079°24'4 9.8
2018-Sep-22 02:03N 26°00' W 079°28'110.0
2018-Sep-22 02:00N 26°00' W 079°28'5 9.7
2018-Sep-22 01:30N 25°57' W 079°32'4 9.2
2018-Sep-22 01:02N 25°53' W 079°35'0 9.2
2018-Sep-22 01:00N 25°53' W 079°35'5 9.4
2018-Sep-22 00:30N 25°50' W 079°39'4 9.9
2018-Sep-22 00:03N 25°47' W 079°42'110.8
2018-Sep-22 00:00N 25°46' W 079°43'510.2
2018-Sep-21 23:29N 25°46' W 079°49'4 9.9
2018-Sep-21 23:04N 25°46' W 079°54'110.1
2018-Sep-21 23:01N 25°46' W 079°54'5 9.8
2018-Sep-21 22:30N 25°46' W 079°60'4 9.7
2018-Sep-21 22:04N 25°46' W 080°04'0 6.7
2018-Sep-21 22:01N 25°46' W 080°05'5 9.0
2018-Sep-21 21:30N 25°47' W 080°10'0 0.7
2018-Sep-21 21:03N 25°47' W 080°10'0 2.7
2018-Sep-21 20:58N 25°47' W 080°10'0 0.0
2018-Sep-21 20:22N 25°47' W 080°10'0 0.0
2018-Sep-21 20:01N 25°47' W 080°10'0 0.0
2018-Sep-21 19:58N 25°47' W 080°10'0 0.0
2018-Sep-21 19:31N 25°47' W 080°10'0 0.0
2018-Sep-21 19:00N 25°47' W 080°10'0 0.0
2018-Sep-21 18:24N 25°47' W 080°10'0 0.0
2018-Sep-21 18:03N 25°47' W 080°10'0 0.0
2018-Sep-21 18:00N 25°47' W 080°10'0 0.0
2018-Sep-21 17:28N 25°47' W 080°10'0 0.0
2018-Sep-21 17:01N 25°47' W 080°10'0 0.0
2018-Sep-21 16:58N 25°47' W 080°10'0 0.0
2018-Sep-21 16:28N 25°47' W 080°10'0 0.0
2018-Sep-21 16:00N 25°47' W 080°10'0 0.0
2018-Sep-21 15:30N 25°47' W 080°10'0 0.0
2018-Sep-21 15:03N 25°47' W 080°10'0 0.0
2018-Sep-21 15:00N 25°47' W 080°10'0 0.0
2018-Sep-21 14:30N 25°47' W 080°10'0 0.0
2018-Sep-21 13:29N 25°47' W 080°10'0 0.0
2018-Sep-21 13:02N 25°47' W 080°10'0 0.0
2018-Sep-21 12:56N 25°47' W 080°10'0 0.0
2018-Sep-21 12:29N 25°47' W 080°10'0 0.0
2018-Sep-21 12:02N 25°47' W 080°10'0 0.0
2018-Sep-21 11:59N 25°47' W 080°10'0 0.0
2018-Sep-21 11:29N 25°47' W 080°10'0 0.0
2018-Sep-21 11:03N 25°47' W 080°10'0 0.0
2018-Sep-21 10:52N 25°47' W 080°10'0 0.0
2018-Sep-21 10:25N 25°47' W 080°10'0 0.0
2018-Sep-21 10:01N 25°47' W 080°10'0 0.0
2018-Sep-21 09:59N 25°47' W 080°10'1 2.3
2018-Sep-21 09:30N 25°46' W 080°09'511.1
2018-Sep-21 09:03N 25°46' W 080°03'011.5
2018-Sep-21 09:00N 25°46' W 080°03'4 7.8
2018-Sep-21 08:30N 25°47' W 079°58'5 9.6
2018-Sep-21 08:02N 25°47' W 079°53'0 9.3
2018-Sep-21 08:00N 25°47' W 079°53'5 9.2
2018-Sep-21 07:30N 25°47' W 079°48'4 9.2
2018-Sep-21 07:03N 25°47' W 079°43'0 8.9
2018-Sep-21 07:00N 25°47' W 079°43'4 8.3
2018-Sep-21 06:30N 25°43' W 079°41'4 9.1
2018-Sep-21 06:03N 25°39' W 079°40'0 9.1
2018-Sep-21 06:01N 25°39' W 079°40'5 9.1
2018-Sep-21 05:30N 25°34' W 079°40'4 9.9
2018-Sep-21 05:03N 25°30' W 079°40'111.0
2018-Sep-21 05:00N 25°29' W 079°40'611.7
2018-Sep-21 04:30N 25°23' W 079°40'5 0.1
2018-Sep-19 00:51N 25°25' W 079°35'618.2
2018-Sep-19 00:30N 25°31' W 079°34'818.0
2018-Sep-19 00:03N 25°39' W 079°33'117.9
2018-Sep-19 00:00N 25°40' W 079°33'918.3
2018-Sep-18 23:30N 25°48' W 079°28'818.5
2018-Sep-18 23:03N 25°55' W 079°23'118.8
2018-Sep-18 23:00N 25°56' W 079°22'11 0.5
2018-Sep-18 02:18N 26°07' W 079°21'3 9.9
2018-Sep-18 01:58N 26°04' W 079°24'510.0
2018-Sep-18 01:30N 26°01' W 079°27'4 9.9
2018-Sep-18 01:03N 25°57' W 079°31'0 9.8
2018-Sep-18 01:00N 25°57' W 079°31'510.0
2018-Sep-18 00:30N 25°54' W 079°35'510.2
2018-Sep-18 00:03N 25°50' W 079°39'110.5
2018-Sep-18 00:00N 25°50' W 079°39'510.2
2018-Sep-17 23:30N 25°46' W 079°43'510.2
2018-Sep-17 23:03N 25°46' W 079°48'110.2
2018-Sep-17 23:00N 25°46' W 079°49'510.3
2018-Sep-17 22:30N 25°46' W 079°55'510.3
2018-Sep-17 22:03N 25°46' W 079°60'010.4
2018-Sep-17 22:00N 25°46' W 080°00'5 9.1
2018-Sep-17 21:30N 25°46' W 080°05'4 8.8
2018-Sep-17 21:03N 25°46' W 080°10'0 0.4
2018-Sep-17 20:59N 25°46' W 080°10'0 0.0
2018-Sep-17 20:29N 25°46' W 080°10'0 0.0
2018-Sep-17 20:01N 25°46' W 080°10'0 0.0
2018-Sep-17 19:58N 25°46' W 080°10'0 0.0
2018-Sep-17 19:28N 25°46' W 080°10'0 0.0
2018-Sep-17 19:01N 25°46' W 080°10'0 0.0
2018-Sep-17 18:58N 25°46' W 080°10'0 0.0
2018-Sep-17 18:28N 25°46' W 080°10'0 0.0
2018-Sep-17 18:01N 25°46' W 080°10'0 0.0
2018-Sep-17 17:58N 25°46' W 080°10'0 0.0
2018-Sep-17 17:24N 25°46' W 080°10'0 0.0
2018-Sep-17 16:59N 25°46' W 080°10'0 0.0
2018-Sep-17 16:25N 25°46' W 080°10'0 0.0
2018-Sep-17 15:58N 25°46' W 080°10'0 0.0
2018-Sep-17 15:28N 25°46' W 080°10'0 0.0
2018-Sep-17 15:01N 25°46' W 080°10'0 0.0
2018-Sep-17 14:58N 25°46' W 080°10'0 0.0
2018-Sep-17 14:28N 25°46' W 080°10'0 0.0
2018-Sep-17 14:00N 25°46' W 080°10'0 0.0
2018-Sep-17 13:30N 25°46' W 080°10'0 0.0
2018-Sep-17 13:03N 25°46' W 080°10'0 0.0
2018-Sep-17 13:00N 25°46' W 080°10'0 0.0
2018-Sep-17 12:30N 25°46' W 080°10'0 0.0
2018-Sep-17 12:03N 25°46' W 080°10'0 0.0
2018-Sep-17 12:00N 25°46' W 080°10'0 0.0
2018-Sep-17 11:29N 25°46' W 080°10'0 0.0
2018-Sep-17 11:02N 25°46' W 080°10'0 0.0
2018-Sep-17 10:59N 25°46' W 080°10'0 0.0
2018-Sep-17 10:30N 25°46' W 080°10'1 2.0
2018-Sep-17 10:03N 25°47' W 080°11'0 5.3
2018-Sep-17 10:00N 25°47' W 080°11'2 4.4
2018-Sep-17 09:30N 25°46' W 080°09'510.7
2018-Sep-17 09:03N 25°47' W 080°03'0 9.2
2018-Sep-17 09:00N 25°47' W 080°03'4 7.5
2018-Sep-17 08:30N 25°47' W 079°59'4 8.7
2018-Sep-17 08:03N 25°47' W 079°54'0 8.7
2018-Sep-17 08:01N 25°47' W 079°54'4 8.9
2018-Sep-17 07:30N 25°47' W 079°49'4 8.6
2018-Sep-17 07:03N 25°48' W 079°45'0 8.5
2018-Sep-17 07:00N 25°48' W 079°44'4 8.2
2018-Sep-17 06:30N 25°50' W 079°40'4 8.3
2018-Sep-17 06:03N 25°52' W 079°37'0 8.1
2018-Sep-17 06:01N 25°52' W 079°37'4 8.1
2018-Sep-17 05:31N 25°55' W 079°34'3 7.7
2018-Sep-17 05:03N 25°58' W 079°31'0 6.4
2018-Sep-17 05:00N 25°58' W 079°31'3 6.4
2018-Sep-17 04:30N 26°00' W 079°28'3 6.5
2018-Sep-17 04:02N 26°02' W 079°26'0 6.5
2018-Sep-17 04:00N 26°02' W 079°26'3 6.2
2018-Sep-17 03:30N 26°05' W 079°23'3 6.3
2018-Sep-17 03:01N 26°07' W 079°21'0 6.1
2018-Sep-17 03:00N 26°07' W 079°21'4 7.6
2018-Sep-17 02:30N 26°09' W 079°17'4 9.4
2018-Sep-17 02:02N 26°10' W 079°13'10 0.2
2018-Sep-15 02:20N 26°06' W 079°23'2 6.2
2018-Sep-15 02:02N 26°04' W 079°24'0 7.6
2018-Sep-15 02:00N 26°04' W 079°24'4 7.1
2018-Sep-15 01:30N 26°01' W 079°26'4 9.2
2018-Sep-15 01:03N 25°58' W 079°29'110.2
2018-Sep-15 01:00N 25°58' W 079°29'510.0
2018-Sep-15 00:30N 25°54' W 079°33'510.7
2018-Sep-15 00:03N 25°51' W 079°37'112.7
2018-Sep-15 00:00N 25°51' W 079°38'612.5
2018-Sep-14 23:30N 25°47' W 079°43'510.0
2018-Sep-14 23:02N 25°46' W 079°48'010.2
2018-Sep-14 23:00N 25°46' W 079°49'713.7
2018-Sep-14 22:30N 25°46' W 079°56'714.6
2018-Sep-14 22:03N 25°46' W 080°04'114.0
2018-Sep-14 22:00N 25°46' W 080°04'5 9.9
2018-Sep-14 21:30N 25°47' W 080°10'0 0.2
2018-Sep-14 21:03N 25°47' W 080°10'  

Dump ship's entire track history